sensor_id;sensor_type;location;lat;lon;timestamp;temperature;humidity
2579;DHT22;1299;48.282;14.398;2024-02-15T00:01:05;7.70;99.90
2579;DHT22;1299;48.282;14.398;2024-02-15T00:03:32;7.60;99.90
2579;DHT22;1299;48.282;14.398;2024-02-15T00:06:00;7.70;99.90
2579;DHT22;1299;48.282;14.398;2024-02-15T00:08:29;7.70;99.90
2579;DHT22;1299;48.282;14.398;2024-02-15T00:10:56;7.60;99.90
2579;DHT22;1299;48.282;14.398;2024-02-15T00:13:23;7.50;99.90
2579;DHT22;1299;48.282;14.398;2024-02-15T00:15:50;7.60;99.90
2579;DHT22;1299;48.282;14.398;2024-02-15T00:18:19;7.50;99.90
2579;DHT22;1299;48.282;14.398;2024-02-15T00:20:47;7.50;99.90
2579;DHT22;1299;48.282;14.398;2024-02-15T00:23:14;7.50;99.90
2579;DHT22;1299;48.282;14.398;2024-02-15T00:25:42;7.50;99.90
2579;DHT22;1299;48.282;14.398;2024-02-15T00:28:10;7.50;99.90
2579;DHT22;1299;48.282;14.398;2024-02-15T00:30:37;7.60;99.90
2579;DHT22;1299;48.282;14.398;2024-02-15T00:33:04;7.50;99.90
2579;DHT22;1299;48.282;14.398;2024-02-15T00:35:34;7.60;99.90
2579;DHT22;1299;48.282;14.398;2024-02-15T00:38:01;7.50;99.90
2579;DHT22;1299;48.282;14.398;2024-02-15T00:40:28;7.50;99.90
2579;DHT22;1299;48.282;14.398;2024-02-15T00:42:55;7.50;99.90
2579;DHT22;1299;48.282;14.398;2024-02-15T00:45:22;7.50;99.90
2579;DHT22;1299;48.282;14.398;2024-02-15T00:47:49;7.50;99.90
2579;DHT22;1299;48.282;14.398;2024-02-15T00:50:16;7.50;99.90
2579;DHT22;1299;48.282;14.398;2024-02-15T00:52:44;7.40;99.90
2579;DHT22;1299;48.282;14.398;2024-02-15T00:55:11;7.50;99.90
2579;DHT22;1299;48.282;14.398;2024-02-15T00:57:38;7.50;99.90
2579;DHT22;1299;48.282;14.398;2024-02-15T01:00:06;7.50;99.90
2579;DHT22;1299;48.282;14.398;2024-02-15T01:02:35;7.60;99.90
2579;DHT22;1299;48.282;14.398;2024-02-15T01:05:02;7.60;99.90
2579;DHT22;1299;48.282;14.398;2024-02-15T01:07:29;7.60;99.90
2579;DHT22;1299;48.282;14.398;2024-02-15T01:09:58;7.50;99.90
2579;DHT22;1299;48.282;14.398;2024-02-15T01:12:24;7.50;99.90
2579;DHT22;1299;48.282;14.398;2024-02-15T01:14:51;7.60;99.90
2579;DHT22;1299;48.282;14.398;2024-02-15T01:17:18;7.50;99.90
2579;DHT22;1299;48.282;14.398;2024-02-15T01:19:45;7.50;99.90
2579;DHT22;1299;48.282;14.398;2024-02-15T01:22:12;7.60;99.90
2579;DHT22;1299;48.282;14.398;2024-02-15T01:24:39;7.70;99.90
2579;DHT22;1299;48.282;14.398;2024-02-15T01:27:08;7.70;99.90
2579;DHT22;1299;48.282;14.398;2024-02-15T01:29:35;7.70;99.90
2579;DHT22;1299;48.282;14.398;2024-02-15T01:32:03;7.70;99.90
2579;DHT22;1299;48.282;14.398;2024-02-15T01:34:30;7.70;99.90
2579;DHT22;1299;48.282;14.398;2024-02-15T01:36:59;7.70;99.90
2579;DHT22;1299;48.282;14.398;2024-02-15T01:39:26;7.70;99.90
2579;DHT22;1299;48.282;14.398;2024-02-15T01:41:53;7.50;99.90
2579;DHT22;1299;48.282;14.398;2024-02-15T01:44:23;7.50;99.90
2579;DHT22;1299;48.282;14.398;2024-02-15T01:46:50;7.50;99.90
2579;DHT22;1299;48.282;14.398;2024-02-15T01:49:20;7.70;99.90
2579;DHT22;1299;48.282;14.398;2024-02-15T01:51:50;7.70;99.90
2579;DHT22;1299;48.282;14.398;2024-02-15T01:54:18;7.80;99.90
2579;DHT22;1299;48.282;14.398;2024-02-15T01:56:46;7.80;99.90
2579;DHT22;1299;48.282;14.398;2024-02-15T01:59:15;7.80;99.90
2579;DHT22;1299;48.282;14.398;2024-02-15T02:01:44;7.70;99.90
2579;DHT22;1299;48.282;14.398;2024-02-15T02:04:12;7.70;99.90
2579;DHT22;1299;48.282;14.398;2024-02-15T02:06:39;7.80;99.90
2579;DHT22;1299;48.282;14.398;2024-02-15T02:09:06;7.90;99.90
2579;DHT22;1299;48.282;14.398;2024-02-15T02:11:38;7.90;99.90
2579;DHT22;1299;48.282;14.398;2024-02-15T02:14:05;7.80;99.90
2579;DHT22;1299;48.282;14.398;2024-02-15T02:16:32;7.80;99.90
2579;DHT22;1299;48.282;14.398;2024-02-15T02:19:02;7.80;99.90
2579;DHT22;1299;48.282;14.398;2024-02-15T02:21:36;7.70;99.90
2579;DHT22;1299;48.282;14.398;2024-02-15T02:24:12;7.70;99.90
2579;DHT22;1299;48.282;14.398;2024-02-15T02:26:41;7.60;99.90
2579;DHT22;1299;48.282;14.398;2024-02-15T02:29:09;7.50;99.90
2579;DHT22;1299;48.282;14.398;2024-02-15T02:31:36;7.50;99.90
2579;DHT22;1299;48.282;14.398;2024-02-15T02:34:03;7.60;99.90
2579;DHT22;1299;48.282;14.398;2024-02-15T02:36:32;7.60;99.90
2579;DHT22;1299;48.282;14.398;2024-02-15T02:38:59;7.40;99.90
2579;DHT22;1299;48.282;14.398;2024-02-15T02:41:27;7.40;99.90
2579;DHT22;1299;48.282;14.398;2024-02-15T02:43:56;7.60;99.90
2579;DHT22;1299;48.282;14.398;2024-02-15T02:46:23;7.50;99.90
2579;DHT22;1299;48.282;14.398;2024-02-15T02:48:51;7.40;99.90
2579;DHT22;1299;48.282;14.398;2024-02-15T02:51:18;7.50;99.90
2579;DHT22;1299;48.282;14.398;2024-02-15T02:53:45;7.60;99.90
2579;DHT22;1299;48.282;14.398;2024-02-15T02:56:12;7.70;99.90
2579;DHT22;1299;48.282;14.398;2024-02-15T02:58:39;7.70;99.90
2579;DHT22;1299;48.282;14.398;2024-02-15T03:01:09;7.80;99.90
2579;DHT22;1299;48.282;14.398;2024-02-15T03:03:36;7.80;99.90
2579;DHT22;1299;48.282;14.398;2024-02-15T03:06:04;7.80;99.90
2579;DHT22;1299;48.282;14.398;2024-02-15T03:08:31;7.60;99.90
2579;DHT22;1299;48.282;14.398;2024-02-15T03:10:59;7.50;99.90
2579;DHT22;1299;48.282;14.398;2024-02-15T03:13:26;7.40;99.90
2579;DHT22;1299;48.282;14.398;2024-02-15T03:15:53;7.10;99.90
2579;DHT22;1299;48.282;14.398;2024-02-15T03:18:22;6.90;99.90
2579;DHT22;1299;48.282;14.398;2024-02-15T03:20:50;7.10;99.90
2579;DHT22;1299;48.282;14.398;2024-02-15T03:23:17;7.30;99.90
2579;DHT22;1299;48.282;14.398;2024-02-15T03:25:44;7.40;99.90
2579;DHT22;1299;48.282;14.398;2024-02-15T03:28:11;7.60;99.90
2579;DHT22;1299;48.282;14.398;2024-02-15T03:30:38;7.60;99.90
2579;DHT22;1299;48.282;14.398;2024-02-15T03:33:05;7.60;99.90
2579;DHT22;1299;48.282;14.398;2024-02-15T03:35:33;7.70;99.90
2579;DHT22;1299;48.282;14.398;2024-02-15T03:38:01;7.80;99.90
2579;DHT22;1299;48.282;14.398;2024-02-15T03:40:28;7.90;99.90
2579;DHT22;1299;48.282;14.398;2024-02-15T03:42:56;7.90;99.90
2579;DHT22;1299;48.282;14.398;2024-02-15T03:45:23;7.80;99.90
2579;DHT22;1299;48.282;14.398;2024-02-15T03:47:50;7.80;99.90
2579;DHT22;1299;48.282;14.398;2024-02-15T03:50:18;7.80;99.90
2579;DHT22;1299;48.282;14.398;2024-02-15T03:52:48;7.70;99.90
2579;DHT22;1299;48.282;14.398;2024-02-15T03:55:16;7.70;99.90
2579;DHT22;1299;48.282;14.398;2024-02-15T03:57:43;7.70;99.90
2579;DHT22;1299;48.282;14.398;2024-02-15T04:00:12;7.60;99.90
2579;DHT22;1299;48.282;14.398;2024-02-15T04:02:40;7.70;99.90
2579;DHT22;1299;48.282;14.398;2024-02-15T04:05:07;7.70;99.90
2579;DHT22;1299;48.282;14.398;2024-02-15T04:07:37;7.70;99.90
2579;DHT22;1299;48.282;14.398;2024-02-15T04:10:07;7.70;99.90
2579;DHT22;1299;48.282;14.398;2024-02-15T04:12:34;7.70;99.90
2579;DHT22;1299;48.282;14.398;2024-02-15T04:15:02;7.60;99.90
2579;DHT22;1299;48.282;14.398;2024-02-15T04:17:32;7.50;99.90
2579;DHT22;1299;48.282;14.398;2024-02-15T04:20:00;7.50;99.90
2579;DHT22;1299;48.282;14.398;2024-02-15T04:22:31;7.60;99.90
2579;DHT22;1299;48.282;14.398;2024-02-15T04:25:05;7.60;99.90
2579;DHT22;1299;48.282;14.398;2024-02-15T04:27:33;7.60;99.90
2579;DHT22;1299;48.282;14.398;2024-02-15T04:30:00;7.60;99.90
2579;DHT22;1299;48.282;14.398;2024-02-15T04:32:28;7.60;99.90
2579;DHT22;1299;48.282;14.398;2024-02-15T04:34:59;7.60;99.90
2579;DHT22;1299;48.282;14.398;2024-02-15T04:37:26;7.60;99.90
2579;DHT22;1299;48.282;14.398;2024-02-15T04:39:54;7.50;99.90
2579;DHT22;1299;48.282;14.398;2024-02-15T04:42:23;7.00;99.90
2579;DHT22;1299;48.282;14.398;2024-02-15T04:44:53;7.00;99.90
2579;DHT22;1299;48.282;14.398;2024-02-15T04:47:20;7.10;99.90
2579;DHT22;1299;48.282;14.398;2024-02-15T04:49:47;7.10;99.90
2579;DHT22;1299;48.282;14.398;2024-02-15T04:52:14;7.10;99.90
2579;DHT22;1299;48.282;14.398;2024-02-15T04:54:43;7.10;99.90
2579;DHT22;1299;48.282;14.398;2024-02-15T04:57:11;7.20;99.90
2579;DHT22;1299;48.282;14.398;2024-02-15T04:59:39;7.30;99.90
2579;DHT22;1299;48.282;14.398;2024-02-15T05:02:12;7.40;99.90
2579;DHT22;1299;48.282;14.398;2024-02-15T05:04:39;7.30;99.90
2579;DHT22;1299;48.282;14.398;2024-02-15T05:07:08;7.60;99.90
2579;DHT22;1299;48.282;14.398;2024-02-15T05:09:35;7.40;99.90
2579;DHT22;1299;48.282;14.398;2024-02-15T05:12:02;7.50;99.90
2579;DHT22;1299;48.282;14.398;2024-02-15T05:14:29;7.60;99.90
2579;DHT22;1299;48.282;14.398;2024-02-15T05:16:58;7.80;99.90
2579;DHT22;1299;48.282;14.398;2024-02-15T05:19:25;7.90;99.90
2579;DHT22;1299;48.282;14.398;2024-02-15T05:21:52;7.90;99.90
2579;DHT22;1299;48.282;14.398;2024-02-15T05:24:20;7.90;99.90
2579;DHT22;1299;48.282;14.398;2024-02-15T05:26:48;7.80;99.90
2579;DHT22;1299;48.282;14.398;2024-02-15T05:29:16;7.80;99.90
2579;DHT22;1299;48.282;14.398;2024-02-15T05:31:43;7.70;99.90
2579;DHT22;1299;48.282;14.398;2024-02-15T05:34:11;7.80;99.90
2579;DHT22;1299;48.282;14.398;2024-02-15T05:36:40;7.80;99.90
2579;DHT22;1299;48.282;14.398;2024-02-15T05:39:06;7.80;99.90
2579;DHT22;1299;48.282;14.398;2024-02-15T05:41:37;7.90;99.90
2579;DHT22;1299;48.282;14.398;2024-02-15T05:44:06;7.90;99.90
2579;DHT22;1299;48.282;14.398;2024-02-15T05:46:34;7.90;99.90
2579;DHT22;1299;48.282;14.398;2024-02-15T05:49:04;7.70;99.90
2579;DHT22;1299;48.282;14.398;2024-02-15T05:51:32;7.90;99.90
2579;DHT22;1299;48.282;14.398;2024-02-15T05:53:59;8.10;99.90
2579;DHT22;1299;48.282;14.398;2024-02-15T05:56:26;8.00;99.90
2579;DHT22;1299;48.282;14.398;2024-02-15T05:58:54;8.00;99.90
2579;DHT22;1299;48.282;14.398;2024-02-15T06:01:22;7.90;99.90
2579;DHT22;1299;48.282;14.398;2024-02-15T06:03:49;7.80;99.90
2579;DHT22;1299;48.282;14.398;2024-02-15T06:06:22;7.90;99.90
2579;DHT22;1299;48.282;14.398;2024-02-15T06:08:54;7.80;99.90
2579;DHT22;1299;48.282;14.398;2024-02-15T06:11:26;7.90;99.90
2579;DHT22;1299;48.282;14.398;2024-02-15T06:13:59;8.00;99.90
2579;DHT22;1299;48.282;14.398;2024-02-15T06:16:27;8.00;99.90
2579;DHT22;1299;48.282;14.398;2024-02-15T06:18:54;7.90;99.90
2579;DHT22;1299;48.282;14.398;2024-02-15T06:21:21;7.60;99.90
2579;DHT22;1299;48.282;14.398;2024-02-15T06:23:49;7.80;99.90
2579;DHT22;1299;48.282;14.398;2024-02-15T06:26:19;7.80;99.90
2579;DHT22;1299;48.282;14.398;2024-02-15T06:28:46;7.90;99.90
2579;DHT22;1299;48.282;14.398;2024-02-15T06:31:33;7.90;99.90
2579;DHT22;1299;48.282;14.398;2024-02-15T06:34:17;7.90;99.90
2579;DHT22;1299;48.282;14.398;2024-02-15T06:37:01;7.90;99.90
2579;DHT22;1299;48.282;14.398;2024-02-15T06:39:45;7.90;99.90
2579;DHT22;1299;48.282;14.398;2024-02-15T06:42:20;7.90;99.90
2579;DHT22;1299;48.282;14.398;2024-02-15T06:44:48;7.80;99.90
2579;DHT22;1299;48.282;14.398;2024-02-15T06:47:15;7.80;99.90
2579;DHT22;1299;48.282;14.398;2024-02-15T06:49:45;7.70;99.90
2579;DHT22;1299;48.282;14.398;2024-02-15T06:52:15;7.70;99.90
2579;DHT22;1299;48.282;14.398;2024-02-15T06:54:43;7.60;99.90
2579;DHT22;1299;48.282;14.398;2024-02-15T06:57:11;7.70;99.90
2579;DHT22;1299;48.282;14.398;2024-02-15T06:59:40;7.80;99.90
2579;DHT22;1299;48.282;14.398;2024-02-15T07:02:08;7.80;99.90
2579;DHT22;1299;48.282;14.398;2024-02-15T07:04:36;7.80;99.90
2579;DHT22;1299;48.282;14.398;2024-02-15T07:07:03;7.80;99.90
2579;DHT22;1299;48.282;14.398;2024-02-15T07:09:30;7.80;99.90
2579;DHT22;1299;48.282;14.398;2024-02-15T07:11:58;7.80;99.90
2579;DHT22;1299;48.282;14.398;2024-02-15T07:14:25;7.80;99.90
2579;DHT22;1299;48.282;14.398;2024-02-15T07:16:55;7.90;99.90
2579;DHT22;1299;48.282;14.398;2024-02-15T07:19:23;8.00;99.90
2579;DHT22;1299;48.282;14.398;2024-02-15T07:21:52;8.20;99.90
2579;DHT22;1299;48.282;14.398;2024-02-15T07:24:20;8.70;99.90
2579;DHT22;1299;48.282;14.398;2024-02-15T07:26:47;9.20;99.90
2579;DHT22;1299;48.282;14.398;2024-02-15T07:29:19;9.70;99.90
2579;DHT22;1299;48.282;14.398;2024-02-15T07:31:47;9.90;99.90
2579;DHT22;1299;48.282;14.398;2024-02-15T07:34:15;10.10;99.90
2579;DHT22;1299;48.282;14.398;2024-02-15T07:36:42;10.60;99.90
2579;DHT22;1299;48.282;14.398;2024-02-15T07:39:11;10.60;99.90
2579;DHT22;1299;48.282;14.398;2024-02-15T07:41:48;10.30;99.90
2579;DHT22;1299;48.282;14.398;2024-02-15T07:44:16;10.10;99.90
2579;DHT22;1299;48.282;14.398;2024-02-15T07:46:43;9.80;99.90
2579;DHT22;1299;48.282;14.398;2024-02-15T07:49:10;9.70;99.90
2579;DHT22;1299;48.282;14.398;2024-02-15T07:51:38;9.70;99.90
2579;DHT22;1299;48.282;14.398;2024-02-15T07:54:06;9.90;99.90
2579;DHT22;1299;48.282;14.398;2024-02-15T07:56:33;10.40;99.90
2579;DHT22;1299;48.282;14.398;2024-02-15T07:59:01;11.00;99.90
2579;DHT22;1299;48.282;14.398;2024-02-15T08:01:28;11.20;99.90
2579;DHT22;1299;48.282;14.398;2024-02-15T08:03:58;11.50;99.90
2579;DHT22;1299;48.282;14.398;2024-02-15T08:06:25;11.40;99.90
2579;DHT22;1299;48.282;14.398;2024-02-15T08:08:55;11.20;99.90
2579;DHT22;1299;48.282;14.398;2024-02-15T08:11:22;10.90;99.90
2579;DHT22;1299;48.282;14.398;2024-02-15T08:13:52;10.40;99.90
2579;DHT22;1299;48.282;14.398;2024-02-15T08:16:22;9.90;99.90
2579;DHT22;1299;48.282;14.398;2024-02-15T08:18:50;10.40;99.90
2579;DHT22;1299;48.282;14.398;2024-02-15T08:21:18;10.40;99.90
2579;DHT22;1299;48.282;14.398;2024-02-15T08:23:52;10.30;99.90
2579;DHT22;1299;48.282;14.398;2024-02-15T08:26:21;10.20;99.90
2579;DHT22;1299;48.282;14.398;2024-02-15T08:28:48;10.20;99.90
2579;DHT22;1299;48.282;14.398;2024-02-15T08:31:15;10.60;99.90
2579;DHT22;1299;48.282;14.398;2024-02-15T08:33:42;10.60;99.90
2579;DHT22;1299;48.282;14.398;2024-02-15T08:36:10;10.80;99.90
2579;DHT22;1299;48.282;14.398;2024-02-15T08:38:39;10.60;99.90
2579;DHT22;1299;48.282;14.398;2024-02-15T08:41:06;10.80;99.90
2579;DHT22;1299;48.282;14.398;2024-02-15T08:43:38;11.00;99.90
2579;DHT22;1299;48.282;14.398;2024-02-15T08:46:07;10.90;99.90
2579;DHT22;1299;48.282;14.398;2024-02-15T08:48:36;11.00;99.90
2579;DHT22;1299;48.282;14.398;2024-02-15T08:51:05;11.10;99.90
2579;DHT22;1299;48.282;14.398;2024-02-15T08:53:35;11.00;99.90
2579;DHT22;1299;48.282;14.398;2024-02-15T08:56:03;11.00;99.90
2579;DHT22;1299;48.282;14.398;2024-02-15T08:58:31;10.80;99.90
2579;DHT22;1299;48.282;14.398;2024-02-15T09:01:00;10.90;99.90
2579;DHT22;1299;48.282;14.398;2024-02-15T09:03:28;10.90;99.90
2579;DHT22;1299;48.282;14.398;2024-02-15T09:05:57;10.60;99.90
2579;DHT22;1299;48.282;14.398;2024-02-15T09:08:29;10.30;99.90
2579;DHT22;1299;48.282;14.398;2024-02-15T09:10:56;10.30;99.90
2579;DHT22;1299;48.282;14.398;2024-02-15T09:13:24;10.30;99.90
2579;DHT22;1299;48.282;14.398;2024-02-15T09:15:52;10.20;99.90
2579;DHT22;1299;48.282;14.398;2024-02-15T09:18:20;10.30;99.90
2579;DHT22;1299;48.282;14.398;2024-02-15T09:20:48;10.40;99.90
2579;DHT22;1299;48.282;14.398;2024-02-15T09:23:20;10.60;99.90
2579;DHT22;1299;48.282;14.398;2024-02-15T09:25:49;10.80;99.90
2579;DHT22;1299;48.282;14.398;2024-02-15T09:28:17;10.60;99.90
2579;DHT22;1299;48.282;14.398;2024-02-15T09:30:48;11.20;99.90
2579;DHT22;1299;48.282;14.398;2024-02-15T09:33:19;11.40;99.90
2579;DHT22;1299;48.282;14.398;2024-02-15T09:35:46;11.40;99.90
2579;DHT22;1299;48.282;14.398;2024-02-15T09:38:14;11.00;99.90
2579;DHT22;1299;48.282;14.398;2024-02-15T09:40:42;11.40;99.90
2579;DHT22;1299;48.282;14.398;2024-02-15T09:43:10;11.40;99.90
2579;DHT22;1299;48.282;14.398;2024-02-15T09:45:39;11.40;99.90
2579;DHT22;1299;48.282;14.398;2024-02-15T09:48:07;11.70;99.90
2579;DHT22;1299;48.282;14.398;2024-02-15T09:50:41;11.60;99.90
2579;DHT22;1299;48.282;14.398;2024-02-15T09:53:09;12.10;99.90
2579;DHT22;1299;48.282;14.398;2024-02-15T09:55:36;12.20;99.90
2579;DHT22;1299;48.282;14.398;2024-02-15T09:58:03;11.90;99.90
2579;DHT22;1299;48.282;14.398;2024-02-15T10:00:32;12.10;99.90
2579;DHT22;1299;48.282;14.398;2024-02-15T10:03:00;12.10;99.90
2579;DHT22;1299;48.282;14.398;2024-02-15T10:05:29;12.30;99.90
2579;DHT22;1299;48.282;14.398;2024-02-15T10:08:00;12.50;99.90
2579;DHT22;1299;48.282;14.398;2024-02-15T10:10:27;12.50;99.90
2579;DHT22;1299;48.282;14.398;2024-02-15T10:12:55;12.50;99.90
2579;DHT22;1299;48.282;14.398;2024-02-15T10:15:33;12.60;99.90
2579;DHT22;1299;48.282;14.398;2024-02-15T10:18:02;12.90;99.90
2579;DHT22;1299;48.282;14.398;2024-02-15T10:20:29;12.90;99.90
2579;DHT22;1299;48.282;14.398;2024-02-15T10:23:16;13.00;99.90
2579;DHT22;1299;48.282;14.398;2024-02-15T10:25:44;13.00;99.90
2579;DHT22;1299;48.282;14.398;2024-02-15T10:28:11;13.10;99.90
2579;DHT22;1299;48.282;14.398;2024-02-15T10:30:41;13.30;99.90
2579;DHT22;1299;48.282;14.398;2024-02-15T10:33:17;13.30;99.90
2579;DHT22;1299;48.282;14.398;2024-02-15T10:35:45;13.50;99.90
2579;DHT22;1299;48.282;14.398;2024-02-15T10:38:25;13.70;99.90
2579;DHT22;1299;48.282;14.398;2024-02-15T10:41:02;14.00;99.90
2579;DHT22;1299;48.282;14.398;2024-02-15T10:43:30;14.30;99.90
2579;DHT22;1299;48.282;14.398;2024-02-15T10:45:58;14.10;99.90
2579;DHT22;1299;48.282;14.398;2024-02-15T10:48:26;14.30;99.90
2579;DHT22;1299;48.282;14.398;2024-02-15T10:50:56;14.60;99.90
2579;DHT22;1299;48.282;14.398;2024-02-15T10:53:28;15.00;99.90
2579;DHT22;1299;48.282;14.398;2024-02-15T10:56:06;14.90;99.90
2579;DHT22;1299;48.282;14.398;2024-02-15T10:58:44;15.00;99.90
2579;DHT22;1299;48.282;14.398;2024-02-15T11:01:17;15.20;99.90
2579;DHT22;1299;48.282;14.398;2024-02-15T11:03:51;15.20;99.90
2579;DHT22;1299;48.282;14.398;2024-02-15T11:06:24;15.20;99.90
2579;DHT22;1299;48.282;14.398;2024-02-15T11:08:54;15.60;99.90
2579;DHT22;1299;48.282;14.398;2024-02-15T11:11:23;15.60;99.90
2579;DHT22;1299;48.282;14.398;2024-02-15T11:14:23;15.30;99.90
2579;DHT22;1299;48.282;14.398;2024-02-15T11:16:50;15.40;99.90
2579;DHT22;1299;48.282;14.398;2024-02-15T11:19:41;15.50;99.90
2579;DHT22;1299;48.282;14.398;2024-02-15T11:22:12;15.70;99.90
2579;DHT22;1299;48.282;14.398;2024-02-15T11:24:48;15.60;99.90
2579;DHT22;1299;48.282;14.398;2024-02-15T11:27:26;15.60;99.90
2579;DHT22;1299;48.282;14.398;2024-02-15T11:29:56;15.60;99.90
2579;DHT22;1299;48.282;14.398;2024-02-15T11:32:38;15.40;99.90
2579;DHT22;1299;48.282;14.398;2024-02-15T11:35:06;15.90;99.90
2579;DHT22;1299;48.282;14.398;2024-02-15T11:37:54;15.90;99.90
2579;DHT22;1299;48.282;14.398;2024-02-15T11:40:26;15.80;99.90
2579;DHT22;1299;48.282;14.398;2024-02-15T11:42:55;16.20;99.90
2579;DHT22;1299;48.282;14.398;2024-02-15T11:45:23;16.50;99.90
2579;DHT22;1299;48.282;14.398;2024-02-15T11:47:52;16.30;99.90
2579;DHT22;1299;48.282;14.398;2024-02-15T11:50:20;16.60;99.90
2579;DHT22;1299;48.282;14.398;2024-02-15T11:52:49;16.70;99.90
2579;DHT22;1299;48.282;14.398;2024-02-15T11:55:19;16.30;99.60
2579;DHT22;1299;48.282;14.398;2024-02-15T11:57:58;15.80;99.90
2579;DHT22;1299;48.282;14.398;2024-02-15T12:00:37;16.10;99.90
2579;DHT22;1299;48.282;14.398;2024-02-15T12:03:22;16.20;99.90
2579;DHT22;1299;48.282;14.398;2024-02-15T12:06:07;16.70;99.90
2579;DHT22;1299;48.282;14.398;2024-02-15T12:08:52;16.60;99.40
2579;DHT22;1299;48.282;14.398;2024-02-15T12:11:37;16.60;99.50
2579;DHT22;1299;48.282;14.398;2024-02-15T12:14:24;16.70;99.00
2579;DHT22;1299;48.282;14.398;2024-02-15T12:17:10;17.10;98.40
2579;DHT22;1299;48.282;14.398;2024-02-15T12:19:56;17.10;98.40
2579;DHT22;1299;48.282;14.398;2024-02-15T12:22:26;17.10;98.20
2579;DHT22;1299;48.282;14.398;2024-02-15T12:24:54;17.20;98.50
2579;DHT22;1299;48.282;14.398;2024-02-15T12:27:22;17.00;98.70
2579;DHT22;1299;48.282;14.398;2024-02-15T12:29:55;17.30;98.20
2579;DHT22;1299;48.282;14.398;2024-02-15T12:32:24;17.30;97.60
2579;DHT22;1299;48.282;14.398;2024-02-15T12:34:52;17.20;98.30
2579;DHT22;1299;48.282;14.398;2024-02-15T12:37:20;17.30;97.90
2579;DHT22;1299;48.282;14.398;2024-02-15T12:39:48;16.80;97.70
2579;DHT22;1299;48.282;14.398;2024-02-15T12:42:16;17.30;98.00
2579;DHT22;1299;48.282;14.398;2024-02-15T12:44:46;17.90;97.90
2579;DHT22;1299;48.282;14.398;2024-02-15T12:47:21;17.00;96.90
2579;DHT22;1299;48.282;14.398;2024-02-15T12:49:49;17.50;97.80
2579;DHT22;1299;48.282;14.398;2024-02-15T12:52:34;16.70;97.40
2579;DHT22;1299;48.282;14.398;2024-02-15T12:55:12;16.50;99.30
2579;DHT22;1299;48.282;14.398;2024-02-15T12:57:52;17.00;99.00
2579;DHT22;1299;48.282;14.398;2024-02-15T13:00:23;17.30;97.90
2579;DHT22;1299;48.282;14.398;2024-02-15T13:03:03;17.60;97.50
2579;DHT22;1299;48.282;14.398;2024-02-15T13:05:39;17.90;98.10
2579;DHT22;1299;48.282;14.398;2024-02-15T13:08:20;18.10;97.00
2579;DHT22;1299;48.282;14.398;2024-02-15T13:10:48;18.00;97.40
2579;DHT22;1299;48.282;14.398;2024-02-15T13:13:18;17.80;97.80
2579;DHT22;1299;48.282;14.398;2024-02-15T13:15:46;18.40;97.30
2579;DHT22;1299;48.282;14.398;2024-02-15T13:18:15;18.50;96.80
2579;DHT22;1299;48.282;14.398;2024-02-15T13:20:44;18.40;97.30
2579;DHT22;1299;48.282;14.398;2024-02-15T13:23:16;18.50;96.30
2579;DHT22;1299;48.282;14.398;2024-02-15T13:25:54;18.20;96.40
2579;DHT22;1299;48.282;14.398;2024-02-15T13:28:25;18.00;96.40
2579;DHT22;1299;48.282;14.398;2024-02-15T13:30:52;16.70;96.90
2579;DHT22;1299;48.282;14.398;2024-02-15T13:33:24;17.10;98.40
2579;DHT22;1299;48.282;14.398;2024-02-15T13:35:52;17.40;98.20
2579;DHT22;1299;48.282;14.398;2024-02-15T13:38:21;17.70;97.40
2579;DHT22;1299;48.282;14.398;2024-02-15T13:40:49;17.90;97.70
2579;DHT22;1299;48.282;14.398;2024-02-15T13:43:29;17.90;97.10
2579;DHT22;1299;48.282;14.398;2024-02-15T13:45:56;18.10;97.30
2579;DHT22;1299;48.282;14.398;2024-02-15T13:48:25;18.40;96.90
2579;DHT22;1299;48.282;14.398;2024-02-15T13:50:55;18.50;96.40
2579;DHT22;1299;48.282;14.398;2024-02-15T13:53:23;18.10;96.60
2579;DHT22;1299;48.282;14.398;2024-02-15T13:55:51;17.80;96.80
2579;DHT22;1299;48.282;14.398;2024-02-15T13:58:19;18.00;97.40
2579;DHT22;1299;48.282;14.398;2024-02-15T14:01:06;18.10;97.20
2579;DHT22;1299;48.282;14.398;2024-02-15T14:03:35;18.00;97.40
2579;DHT22;1299;48.282;14.398;2024-02-15T14:06:03;18.00;97.30
2579;DHT22;1299;48.282;14.398;2024-02-15T14:08:31;17.60;98.10
2579;DHT22;1299;48.282;14.398;2024-02-15T14:10:58;17.80;98.20
2579;DHT22;1299;48.282;14.398;2024-02-15T14:13:26;18.10;97.70
2579;DHT22;1299;48.282;14.398;2024-02-15T14:15:55;18.10;97.10
2579;DHT22;1299;48.282;14.398;2024-02-15T14:18:23;18.40;97.30
2579;DHT22;1299;48.282;14.398;2024-02-15T14:20:51;18.40;97.00
2579;DHT22;1299;48.282;14.398;2024-02-15T14:23:19;18.50;97.00
2579;DHT22;1299;48.282;14.398;2024-02-15T14:25:46;18.30;97.10
2579;DHT22;1299;48.282;14.398;2024-02-15T14:28:14;18.00;96.90
2579;DHT22;1299;48.282;14.398;2024-02-15T14:30:41;18.00;97.50
2579;DHT22;1299;48.282;14.398;2024-02-15T14:33:26;17.70;97.90
2579;DHT22;1299;48.282;14.398;2024-02-15T14:35:54;17.60;98.10
2579;DHT22;1299;48.282;14.398;2024-02-15T14:38:21;17.60;98.20
2579;DHT22;1299;48.282;14.398;2024-02-15T14:40:50;17.20;98.50
2579;DHT22;1299;48.282;14.398;2024-02-15T14:43:19;17.40;98.70
2579;DHT22;1299;48.282;14.398;2024-02-15T14:45:49;17.20;98.40
2579;DHT22;1299;48.282;14.398;2024-02-15T14:48:17;17.20;99.10
2579;DHT22;1299;48.282;14.398;2024-02-15T14:50:46;17.30;99.60
2579;DHT22;1299;48.282;14.398;2024-02-15T14:53:15;17.10;99.30
2579;DHT22;1299;48.282;14.398;2024-02-15T14:55:43;17.10;99.30
2579;DHT22;1299;48.282;14.398;2024-02-15T14:58:18;16.90;99.60
2579;DHT22;1299;48.282;14.398;2024-02-15T15:00:47;17.10;99.50
2579;DHT22;1299;48.282;14.398;2024-02-15T15:03:16;17.30;99.90
2579;DHT22;1299;48.282;14.398;2024-02-15T15:05:51;17.20;99.70
2579;DHT22;1299;48.282;14.398;2024-02-15T15:08:38;16.70;99.90
2579;DHT22;1299;48.282;14.398;2024-02-15T15:11:24;16.90;99.90
2579;DHT22;1299;48.282;14.398;2024-02-15T15:14:10;16.70;99.90
2579;DHT22;1299;48.282;14.398;2024-02-15T15:16:37;16.80;99.90
2579;DHT22;1299;48.282;14.398;2024-02-15T15:19:11;16.20;99.90
2579;DHT22;1299;48.282;14.398;2024-02-15T15:21:42;16.20;99.90
2579;DHT22;1299;48.282;14.398;2024-02-15T15:24:13;16.00;99.90
2579;DHT22;1299;48.282;14.398;2024-02-15T15:26:45;15.90;99.90
2579;DHT22;1299;48.282;14.398;2024-02-15T15:29:12;15.90;99.90
2579;DHT22;1299;48.282;14.398;2024-02-15T15:31:49;15.90;99.90
2579;DHT22;1299;48.282;14.398;2024-02-15T15:34:21;15.90;99.90
2579;DHT22;1299;48.282;14.398;2024-02-15T15:37:03;15.80;99.90
2579;DHT22;1299;48.282;14.398;2024-02-15T15:39:39;16.10;99.90
2579;DHT22;1299;48.282;14.398;2024-02-15T15:42:15;16.20;99.90
2579;DHT22;1299;48.282;14.398;2024-02-15T15:44:46;16.20;99.90
2579;DHT22;1299;48.282;14.398;2024-02-15T15:47:25;16.10;99.90
2579;DHT22;1299;48.282;14.398;2024-02-15T15:49:54;16.20;99.90
2579;DHT22;1299;48.282;14.398;2024-02-15T15:52:23;16.00;99.90
2579;DHT22;1299;48.282;14.398;2024-02-15T15:55:02;16.00;99.90
2579;DHT22;1299;48.282;14.398;2024-02-15T15:57:31;15.90;99.90
2579;DHT22;1299;48.282;14.398;2024-02-15T16:00:00;15.70;99.90
2579;DHT22;1299;48.282;14.398;2024-02-15T16:02:35;15.60;99.90
2579;DHT22;1299;48.282;14.398;2024-02-15T16:05:08;15.40;99.90
2579;DHT22;1299;48.282;14.398;2024-02-15T16:07:37;15.30;99.90
2579;DHT22;1299;48.282;14.398;2024-02-15T16:10:16;15.20;99.90
2579;DHT22;1299;48.282;14.398;2024-02-15T16:12:51;15.00;99.90